createdAt,value
2023-05-19T00:01:16.620Z,8.61
2023-05-19T00:03:54.617Z,8.60
2023-05-19T00:06:26.871Z,8.59
2023-05-19T00:09:01.182Z,8.57
2023-05-19T00:11:28.373Z,8.55
2023-05-19T00:13:56.585Z,8.54
2023-05-19T00:16:24.936Z,8.49
2023-05-19T00:18:51.817Z,8.43
2023-05-19T00:21:18.627Z,8.41
2023-05-19T00:23:45.193Z,8.39
2023-05-19T00:26:11.938Z,8.36
2023-05-19T00:28:43.005Z,8.34
2023-05-19T00:31:09.719Z,8.30
2023-05-19T00:33:36.205Z,8.26
2023-05-19T00:36:03.638Z,8.26
2023-05-19T00:38:35.681Z,8.22
2023-05-19T00:41:04.070Z,8.17
2023-05-19T00:43:30.668Z,8.18
2023-05-19T00:45:57.759Z,8.14
2023-05-19T00:48:25.653Z,8.11
2023-05-19T00:50:54.924Z,8.08
2023-05-19T00:53:23.148Z,8.02
2023-05-19T00:55:50.374Z,7.99
2023-05-19T00:58:18.483Z,7.97
2023-05-19T01:00:45.750Z,7.91
2023-05-19T01:03:12.536Z,7.92
2023-05-19T01:05:47.536Z,7.90
2023-05-19T01:08:14.248Z,7.86
2023-05-19T01:10:40.875Z,7.82
2023-05-19T01:13:08.536Z,7.81
2023-05-19T01:16:08.040Z,7.79
2023-05-19T01:18:46.471Z,7.77
2023-05-19T01:21:48.130Z,7.74
2023-05-19T01:24:56.183Z,7.74
2023-05-19T01:27:50.622Z,7.73
2023-05-19T01:30:37.091Z,7.71
2023-05-19T01:33:07.267Z,7.66
2023-05-19T01:35:36.414Z,7.61
2023-05-19T01:38:03.821Z,7.58
2023-05-19T01:40:32.717Z,7.56
2023-05-19T01:43:00.712Z,7.54
2023-05-19T01:45:33.227Z,7.51
2023-05-19T01:48:03.793Z,7.50
2023-05-19T01:50:31.456Z,7.47
2023-05-19T01:52:59.079Z,7.47
2023-05-19T01:55:25.659Z,7.45
2023-05-19T01:58:11.451Z,7.37
2023-05-19T02:00:56.902Z,7.31
2023-05-19T02:03:38.373Z,7.28
2023-05-19T02:06:38.770Z,7.25
2023-05-19T02:09:43.292Z,7.21
2023-05-19T02:12:24.795Z,7.20
2023-05-19T02:15:07.114Z,7.18
2023-05-19T02:17:38.370Z,7.21
2023-05-19T02:20:05.773Z,7.18
2023-05-19T02:22:32.641Z,7.13
2023-05-19T02:24:59.175Z,7.09
2023-05-19T02:27:26.325Z,7.06
2023-05-19T02:29:53.433Z,7.01
2023-05-19T02:32:20.993Z,6.97
2023-05-19T02:34:47.657Z,6.95
2023-05-19T02:37:15.720Z,6.93
2023-05-19T02:39:42.994Z,6.93
2023-05-19T02:42:09.655Z,6.90
2023-05-19T02:44:36.304Z,6.87
2023-05-19T02:47:02.826Z,6.85
2023-05-19T02:49:35.794Z,6.82
2023-05-19T02:52:05.968Z,6.77
2023-05-19T02:54:34.111Z,6.77
2023-05-19T02:57:01.326Z,6.74
2023-05-19T02:59:27.971Z,6.75
2023-05-19T03:01:56.473Z,6.74
2023-05-19T03:04:23.011Z,6.69
2023-05-19T03:06:50.102Z,6.66
2023-05-19T03:09:16.885Z,6.65
2023-05-19T03:11:43.375Z,6.66
2023-05-19T03:14:10.037Z,6.64
2023-05-19T03:16:36.629Z,6.60
2023-05-19T03:19:03.421Z,6.59
2023-05-19T03:21:30.383Z,6.57
2023-05-19T03:23:56.904Z,6.56
2023-05-19T03:26:24.500Z,6.54
2023-05-19T03:28:51.183Z,6.52
2023-05-19T03:31:18.139Z,6.50
2023-05-19T03:33:44.675Z,6.47
2023-05-19T03:36:12.598Z,6.44
2023-05-19T03:38:39.414Z,6.43
2023-05-19T03:41:05.929Z,6.42
2023-05-19T03:43:32.576Z,6.39
2023-05-19T03:46:02.866Z,6.38
2023-05-19T03:48:49.681Z,6.40
2023-05-19T03:51:16.498Z,6.39
2023-05-19T03:53:45.593Z,6.41
2023-05-19T03:56:13.688Z,6.43
2023-05-19T03:58:44.383Z,6.46
2023-05-19T04:01:11.302Z,6.47
2023-05-19T04:03:37.842Z,6.49
2023-05-19T04:06:04.546Z,6.53
2023-05-19T04:08:32.140Z,6.56
2023-05-19T04:10:58.777Z,6.57
2023-05-19T04:13:25.389Z,6.57
2023-05-19T04:15:52.014Z,6.61
2023-05-19T04:18:18.548Z,6.65
2023-05-19T04:20:45.122Z,6.69
2023-05-19T04:23:11.664Z,6.75
2023-05-19T04:25:38.301Z,6.84
2023-05-19T04:28:04.837Z,6.91
2023-05-19T04:30:31.631Z,6.96
2023-05-19T04:32:59.759Z,7.01
2023-05-19T04:35:26.616Z,7.05
2023-05-19T04:37:56.319Z,7.08
2023-05-19T04:40:31.101Z,7.12
2023-05-19T04:42:57.987Z,7.15
2023-05-19T04:45:28.095Z,7.26
2023-05-19T04:47:58.591Z,7.30
2023-05-19T04:50:25.311Z,7.41
2023-05-19T04:52:52.400Z,7.51
2023-05-19T04:55:18.914Z,7.60
2023-05-19T04:57:47.393Z,7.65
2023-05-19T05:00:14.445Z,7.74
2023-05-19T05:02:53.033Z,7.82
2023-05-19T05:05:21.105Z,7.90
2023-05-19T05:07:47.717Z,7.94
2023-05-19T05:10:14.391Z,7.95
2023-05-19T05:12:41.252Z,7.96
2023-05-19T05:15:08.509Z,8.04
2023-05-19T05:17:36.022Z,8.19
2023-05-19T05:20:05.941Z,8.28
2023-05-19T05:22:32.766Z,8.34
2023-05-19T05:24:59.602Z,8.41
2023-05-19T05:27:27.642Z,8.53
2023-05-19T05:29:54.218Z,8.65
2023-05-19T05:32:21.314Z,8.76
2023-05-19T05:34:48.326Z,8.80
2023-05-19T05:37:15.559Z,8.85
2023-05-19T05:39:42.352Z,8.91
2023-05-19T05:42:09.438Z,9.00
2023-05-19T05:44:36.146Z,9.64
2023-05-19T05:47:04.610Z,12.65
2023-05-19T05:49:31.631Z,15.76
2023-05-19T05:52:05.778Z,17.56
2023-05-19T05:54:37.621Z,18.61
2023-05-19T05:57:04.709Z,19.18
2023-05-19T05:59:31.246Z,20.32
2023-05-19T06:01:57.810Z,21.19
2023-05-19T06:04:25.681Z,20.68
2023-05-19T06:06:56.985Z,19.47
2023-05-19T06:09:24.842Z,20.23
2023-05-19T06:11:51.799Z,22.10
2023-05-19T06:14:18.792Z,23.75
2023-05-19T06:17:04.020Z,22.77
2023-05-19T06:19:30.821Z,23.46
2023-05-19T06:21:57.981Z,24.77
2023-05-19T06:24:24.489Z,24.68
2023-05-19T06:26:50.997Z,23.02
2023-05-19T06:29:18.300Z,23.39
2023-05-19T06:31:45.033Z,24.75
2023-05-19T06:34:17.568Z,25.55
2023-05-19T06:36:45.929Z,25.96
2023-05-19T06:39:13.141Z,26.57
2023-05-19T06:41:40.371Z,27.10
2023-05-19T06:44:09.041Z,27.57
2023-05-19T06:46:35.737Z,27.80
2023-05-19T06:49:02.668Z,27.72
2023-05-19T06:51:33.387Z,28.05
2023-05-19T06:53:59.956Z,28.07
2023-05-19T06:56:27.229Z,27.95
2023-05-19T06:58:53.786Z,28.13
2023-05-19T07:01:26.457Z,27.73
2023-05-19T07:03:55.105Z,27.97
2023-05-19T07:06:22.337Z,27.55
2023-05-19T07:08:49.995Z,27.69
2023-05-19T07:11:17.298Z,26.34
2023-05-19T07:13:44.263Z,25.15
2023-05-19T07:16:11.395Z,24.02
2023-05-19T07:18:38.473Z,24.06
2023-05-19T07:21:05.008Z,24.43
2023-05-19T07:23:31.511Z,24.10
2023-05-19T07:25:58.175Z,24.22
2023-05-19T07:28:24.764Z,24.01
2023-05-19T07:30:51.884Z,23.95
2023-05-19T07:33:18.480Z,24.16
2023-05-19T07:35:48.757Z,24.42
2023-05-19T07:38:18.251Z,24.53
2023-05-19T07:40:44.706Z,24.82
2023-05-19T07:43:11.842Z,25.08
2023-05-19T07:45:38.676Z,25.00
2023-05-19T07:48:05.492Z,24.02
2023-05-19T07:50:32.445Z,22.81
2023-05-19T07:52:59.092Z,23.03
2023-05-19T07:55:26.276Z,24.15
2023-05-19T07:57:52.918Z,24.44
2023-05-19T08:00:19.729Z,23.83
2023-05-19T08:02:48.336Z,24.62
2023-05-19T08:05:15.058Z,24.70
2023-05-19T08:07:41.605Z,23.93
2023-05-19T08:10:08.418Z,24.12
2023-05-19T08:12:34.942Z,24.07
2023-05-19T08:15:01.952Z,25.06
2023-05-19T08:17:28.727Z,25.72
2023-05-19T08:19:55.331Z,25.81
2023-05-19T08:22:21.940Z,25.20
2023-05-19T08:24:50.999Z,25.56
2023-05-19T08:27:18.434Z,25.50
2023-05-19T08:29:44.905Z,25.50
2023-05-19T08:32:22.158Z,25.91
2023-05-19T08:34:48.940Z,25.88
2023-05-19T08:37:41.029Z,24.70
2023-05-19T08:40:11.799Z,24.09
2023-05-19T08:42:38.369Z,23.76
2023-05-19T08:45:05.428Z,23.65
2023-05-19T08:47:36.507Z,23.71
2023-05-19T08:50:07.910Z,24.20
2023-05-19T08:53:01.498Z,23.90
2023-05-19T08:55:34.443Z,24.13
2023-05-19T08:58:03.323Z,23.93
2023-05-19T09:00:30.158Z,23.91
2023-05-19T09:03:00.496Z,24.48
2023-05-19T09:05:33.356Z,24.17
2023-05-19T09:08:04.256Z,24.61
2023-05-19T09:10:30.762Z,24.18
2023-05-19T09:12:57.270Z,23.99
2023-05-19T09:15:26.745Z,23.35
2023-05-19T09:18:07.254Z,22.87
2023-05-19T09:20:38.202Z,22.66
2023-05-19T09:23:05.618Z,23.15
2023-05-19T09:25:32.321Z,23.57
2023-05-19T09:27:59.005Z,23.72
2023-05-19T09:30:26.017Z,23.67
2023-05-19T09:32:52.679Z,23.55
2023-05-19T09:35:21.441Z,23.34
2023-05-19T09:37:51.089Z,23.68
2023-05-19T09:40:17.677Z,24.49
2023-05-19T09:42:44.308Z,25.30
2023-05-19T09:45:11.471Z,25.46
2023-05-19T09:47:42.412Z,24.77
2023-05-19T09:50:10.997Z,24.46
2023-05-19T09:52:39.046Z,24.54
2023-05-19T09:55:09.121Z,23.75
2023-05-19T09:57:37.198Z,23.41
2023-05-19T10:00:14.509Z,22.81
2023-05-19T10:02:45.067Z,22.50
2023-05-19T10:05:17.653Z,22.33
2023-05-19T10:07:45.812Z,22.32
2023-05-19T10:10:13.801Z,22.86
2023-05-19T10:12:40.951Z,23.63
2023-05-19T10:15:58.881Z,23.64
2023-05-19T10:18:29.977Z,23.83
2023-05-19T10:20:57.860Z,23.63
2023-05-19T10:23:24.989Z,24.09
2023-05-19T10:25:54.720Z,23.53
2023-05-19T10:28:27.751Z,23.77
2023-05-19T10:30:58.604Z,24.37
2023-05-19T10:33:56.558Z,24.31
2023-05-19T10:36:28.701Z,24.25
2023-05-19T10:39:08.307Z,24.06
2023-05-19T10:41:50.942Z,24.50
2023-05-19T10:44:47.001Z,24.55
2023-05-19T10:47:13.617Z,24.59
2023-05-19T10:49:40.564Z,24.72
2023-05-19T10:52:25.725Z,23.98
2023-05-19T10:54:54.298Z,23.67
2023-05-19T10:57:31.912Z,24.23
2023-05-19T11:00:00.809Z,24.43
2023-05-19T11:02:58.760Z,24.34
2023-05-19T11:05:30.147Z,24.36
2023-05-19T11:08:05.716Z,24.46
2023-05-19T11:10:32.435Z,24.48
2023-05-19T11:12:59.448Z,24.07
2023-05-19T11:15:29.963Z,24.14
2023-05-19T11:17:56.857Z,23.93
2023-05-19T11:20:26.252Z,23.36
2023-05-19T11:23:19.468Z,23.30
2023-05-19T11:25:51.424Z,23.43
2023-05-19T11:28:19.787Z,23.47
2023-05-19T11:30:51.775Z,22.96
2023-05-19T11:33:20.130Z,23.11
2023-05-19T11:35:47.562Z,23.36
2023-05-19T11:38:16.631Z,23.56
2023-05-19T11:40:43.818Z,23.77
2023-05-19T11:43:10.622Z,23.67
2023-05-19T11:45:37.781Z,23.26
2023-05-19T11:48:05.340Z,23.81
2023-05-19T11:50:40.757Z,24.18
2023-05-19T11:53:07.995Z,23.69
2023-05-19T11:55:43.400Z,23.88
2023-05-19T11:58:09.968Z,23.72
2023-05-19T12:00:39.540Z,23.15
2023-05-19T12:03:07.512Z,22.67
2023-05-19T12:05:40.895Z,22.43
2023-05-19T12:08:09.962Z,22.78
2023-05-19T12:10:36.901Z,22.52
2023-05-19T12:13:03.628Z,22.12
2023-05-19T12:15:32.073Z,22.52
2023-05-19T12:18:01.312Z,22.07
2023-05-19T12:20:36.561Z,22.19
2023-05-19T12:26:13.197Z,22.29
2023-05-19T12:28:39.852Z,22.15
2023-05-19T12:31:06.565Z,21.96
2023-05-19T12:33:35.759Z,21.85
2023-05-19T12:36:02.616Z,21.98
2023-05-19T12:38:29.236Z,22.12
2023-05-19T12:40:59.478Z,21.99
2023-05-19T12:43:26.124Z,21.90
2023-05-19T12:45:53.442Z,22.08
2023-05-19T12:48:22.918Z,22.00
2023-05-19T12:50:53.791Z,21.88
2023-05-19T12:53:20.482Z,22.06
2023-05-19T12:55:47.164Z,22.37
2023-05-19T12:58:15.970Z,22.17
2023-05-19T13:00:44.777Z,22.10
2023-05-19T13:03:29.554Z,22.03
2023-05-19T13:06:02.255Z,21.98
2023-05-19T13:08:29.700Z,21.89
2023-05-19T13:10:56.147Z,21.91
2023-05-19T13:13:22.670Z,22.07
2023-05-19T13:15:49.401Z,22.34
2023-05-19T13:18:16.459Z,22.25
2023-05-19T13:20:44.976Z,22.15
2023-05-19T13:23:11.898Z,22.08
2023-05-19T13:25:38.693Z,21.74
2023-05-19T13:28:06.067Z,21.71
2023-05-19T13:30:34.349Z,21.70
2023-05-19T13:33:01.316Z,21.87
2023-05-19T13:35:28.653Z,21.70
2023-05-19T13:37:55.173Z,21.66
2023-05-19T13:40:22.961Z,21.69
2023-05-19T13:42:49.742Z,21.47
2023-05-19T13:45:16.477Z,21.46
2023-05-19T13:47:42.975Z,21.81
2023-05-19T13:50:09.645Z,21.76
2023-05-19T13:52:36.158Z,21.30
2023-05-19T13:55:03.671Z,21.57
2023-05-19T13:58:17.090Z,22.00
2023-05-19T14:00:43.587Z,22.06
2023-05-19T14:03:10.258Z,21.99
2023-05-19T14:05:37.312Z,22.07
2023-05-19T14:08:19.386Z,22.22
2023-05-19T14:10:46.997Z,22.29
2023-05-19T14:13:32.313Z,22.21
2023-05-19T14:16:05.978Z,21.74
2023-05-19T14:18:32.689Z,21.15
2023-05-19T14:20:59.211Z,20.98
2023-05-19T14:23:25.862Z,21.24
2023-05-19T14:25:52.378Z,21.48
2023-05-19T14:28:44.267Z,21.81
2023-05-19T14:31:18.727Z,22.00
2023-05-19T14:33:45.277Z,21.97
2023-05-19T14:36:11.878Z,21.85
2023-05-19T14:38:38.387Z,21.77
2023-05-19T14:41:05.721Z,21.54
2023-05-19T14:43:32.197Z,21.85
2023-05-19T14:45:58.899Z,21.94
2023-05-19T14:48:25.389Z,21.92
2023-05-19T14:50:52.830Z,21.75
2023-05-19T14:53:19.529Z,21.81
2023-05-19T14:55:49.566Z,21.86
2023-05-19T14:58:27.493Z,22.06
2023-05-19T15:00:57.920Z,22.00
2023-05-19T15:03:24.862Z,22.15
2023-05-19T15:05:51.570Z,22.25
2023-05-19T15:08:18.112Z,22.07
2023-05-19T15:10:48.814Z,22.15
2023-05-19T15:13:18.985Z,21.96
2023-05-19T15:15:48.288Z,21.82
2023-05-19T15:18:17.725Z,21.95
2023-05-19T15:20:46.384Z,21.98
2023-05-19T15:23:12.926Z,22.09
2023-05-19T15:25:40.599Z,22.07
2023-05-19T15:28:07.117Z,22.00
2023-05-19T15:30:33.983Z,21.91
2023-05-19T15:33:00.762Z,21.97
2023-05-19T15:35:27.513Z,21.55
2023-05-19T15:37:54.074Z,21.50
2023-05-19T15:40:20.544Z,21.73
2023-05-19T15:42:47.016Z,21.93
2023-05-19T15:45:13.517Z,21.96
2023-05-19T15:47:40.238Z,21.81
2023-05-19T15:50:07.498Z,21.48
2023-05-19T15:52:33.975Z,21.55
2023-05-19T15:55:00.508Z,21.63
2023-05-19T15:57:26.996Z,21.38
2023-05-19T15:59:53.448Z,21.58
2023-05-19T16:02:20.192Z,21.81
2023-05-19T16:04:46.667Z,21.79
2023-05-19T16:07:13.172Z,21.44
2023-05-19T16:09:39.689Z,21.05
2023-05-19T16:12:06.637Z,20.91
2023-05-19T16:14:36.360Z,20.78
2023-05-19T16:17:04.025Z,20.78
2023-05-19T16:19:30.727Z,20.98
2023-05-19T16:21:57.265Z,21.13
2023-05-19T16:24:24.096Z,21.16
2023-05-19T16:26:53.051Z,21.21
2023-05-19T16:29:19.686Z,21.19
2023-05-19T16:31:46.196Z,21.03
2023-05-19T16:34:12.750Z,21.16
2023-05-19T16:36:39.257Z,21.30
2023-05-19T16:39:05.824Z,21.26
2023-05-19T16:41:32.816Z,21.00
2023-05-19T16:43:59.362Z,20.62
2023-05-19T16:46:25.930Z,20.40
2023-05-19T16:48:52.434Z,20.27
2023-05-19T16:51:18.893Z,20.17
2023-05-19T16:53:48.329Z,20.27
2023-05-19T16:56:14.811Z,20.51
2023-05-19T16:58:41.265Z,20.68
2023-05-19T17:01:07.822Z,20.86
2023-05-19T17:03:35.639Z,21.00
2023-05-19T17:06:02.457Z,20.98
2023-05-19T17:08:28.970Z,20.79
2023-05-19T17:10:55.715Z,20.46
2023-05-19T17:13:22.334Z,20.30
2023-05-19T17:15:52.507Z,20.13
2023-05-19T17:18:19.323Z,20.01
2023-05-19T17:20:45.834Z,19.84
2023-05-19T17:23:12.408Z,19.88
2023-05-19T17:25:38.859Z,20.09
2023-05-19T17:28:05.535Z,20.29
2023-05-19T17:30:32.363Z,20.33
2023-05-19T17:32:59.446Z,20.37
2023-05-19T17:35:28.281Z,20.21
2023-05-19T17:37:55.556Z,20.19
2023-05-19T17:40:22.133Z,20.03
2023-05-19T17:42:49.938Z,19.85
2023-05-19T17:45:16.679Z,19.62
2023-05-19T17:47:43.238Z,19.53
2023-05-19T17:50:10.136Z,19.55
2023-05-19T17:52:39.005Z,19.56
2023-05-19T17:55:06.482Z,19.58
2023-05-19T17:57:35.288Z,19.57
2023-05-19T18:00:03.749Z,19.50
2023-05-19T18:02:31.492Z,19.39
2023-05-19T18:04:58.215Z,19.27
2023-05-19T18:07:26.212Z,19.19
2023-05-19T18:09:55.838Z,18.99
2023-05-19T18:12:22.803Z,18.86
2023-05-19T18:14:50.109Z,18.70
2023-05-19T18:17:16.683Z,18.63
2023-05-19T18:19:43.134Z,18.55
2023-05-19T18:22:12.858Z,18.41
2023-05-19T18:24:39.339Z,18.32
2023-05-19T18:27:05.972Z,18.24
2023-05-19T18:29:34.042Z,18.15
2023-05-19T18:32:01.208Z,18.03
2023-05-19T18:34:29.432Z,17.96
2023-05-19T18:36:56.112Z,17.94
2023-05-19T18:39:22.667Z,17.91
2023-05-19T18:41:49.693Z,17.85
2023-05-19T18:44:16.453Z,17.82
2023-05-19T18:46:42.895Z,17.76
2023-05-19T18:49:11.600Z,17.67
2023-05-19T18:51:38.519Z,17.60
2023-05-19T18:54:05.556Z,17.50
2023-05-19T18:56:33.289Z,17.46
2023-05-19T18:58:59.946Z,17.39
2023-05-19T19:01:55.497Z,17.26
2023-05-19T19:04:23.191Z,17.21
2023-05-19T19:06:49.764Z,17.17
2023-05-19T19:09:16.423Z,17.08
2023-05-19T19:11:43.008Z,16.97
2023-05-19T19:14:10.207Z,16.95
2023-05-19T19:16:37.604Z,16.91
2023-05-19T19:19:04.200Z,16.82
2023-05-19T19:21:31.544Z,16.77
2023-05-19T19:23:58.099Z,16.72
2023-05-19T19:26:27.022Z,16.65
2023-05-19T19:28:53.470Z,16.56
2023-05-19T19:31:20.039Z,16.52
2023-05-19T19:33:46.602Z,16.46
2023-05-19T19:36:13.250Z,16.41
2023-05-19T19:38:39.745Z,16.37
2023-05-19T19:41:09.161Z,16.26
2023-05-19T19:43:35.757Z,16.20
2023-05-19T19:46:04.479Z,16.11
2023-05-19T19:48:31.210Z,16.04
2023-05-19T19:50:57.914Z,16.04
2023-05-19T19:53:24.421Z,15.99
2023-05-19T19:56:01.012Z,15.87
2023-05-19T19:58:30.957Z,15.77
2023-05-19T20:01:01.851Z,15.67
2023-05-19T20:03:28.510Z,15.59
2023-05-19T20:05:56.507Z,15.53
2023-05-19T20:08:27.482Z,15.50
2023-05-19T20:10:54.429Z,15.41
2023-05-19T20:13:21.160Z,15.32
2023-05-19T20:15:48.032Z,15.22
2023-05-19T20:18:14.553Z,15.10
2023-05-19T20:20:42.290Z,15.01
2023-05-19T20:23:09.083Z,14.97
2023-05-19T20:25:51.051Z,14.85
2023-05-19T20:28:40.177Z,14.89
2023-05-19T20:31:09.848Z,14.90
2023-05-19T20:33:36.354Z,14.91
2023-05-19T20:36:03.344Z,14.86
2023-05-19T20:38:29.862Z,14.86
2023-05-19T20:40:56.478Z,14.82
2023-05-19T20:43:22.994Z,14.78
2023-05-19T20:45:49.626Z,14.72
2023-05-19T20:48:16.411Z,14.68
2023-05-19T20:50:44.102Z,14.65
2023-05-19T20:53:10.577Z,14.63
2023-05-19T20:55:38.658Z,14.61
2023-05-19T20:58:05.355Z,14.58
2023-05-19T21:00:32.209Z,14.57
2023-05-19T21:02:59.072Z,14.49
2023-05-19T21:05:25.824Z,14.48
2023-05-19T21:07:52.287Z,14.46
2023-05-19T21:10:18.847Z,14.40
2023-05-19T21:12:45.611Z,14.37
2023-05-19T21:15:12.291Z,14.37
2023-05-19T21:17:41.096Z,14.36
2023-05-19T21:20:07.954Z,14.29
2023-05-19T21:22:35.953Z,14.24
2023-05-19T21:25:02.682Z,14.21
2023-05-19T21:27:29.406Z,14.22
2023-05-19T21:29:55.920Z,14.16
2023-05-19T21:32:22.541Z,14.08
2023-05-19T21:34:49.106Z,14.07
2023-05-19T21:37:17.219Z,14.07
2023-05-19T21:39:44.117Z,14.04
2023-05-19T21:42:10.632Z,13.99
2023-05-19T21:44:37.184Z,13.99
2023-05-19T21:47:03.761Z,13.91
2023-05-19T21:49:30.978Z,13.87
2023-05-19T21:51:57.532Z,13.86
2023-05-19T21:54:24.018Z,13.84
2023-05-19T21:56:50.852Z,13.84
2023-05-19T21:59:17.385Z,13.80
2023-05-19T22:01:44.082Z,13.77
2023-05-19T22:04:11.336Z,13.72
2023-05-19T22:06:37.929Z,13.70
2023-05-19T22:09:04.564Z,13.69
2023-05-19T22:11:31.391Z,13.64
2023-05-19T22:13:57.975Z,13.63
2023-05-19T22:16:24.556Z,13.59
2023-05-19T22:18:51.224Z,13.53
2023-05-19T22:21:17.918Z,13.49
2023-05-19T22:23:44.731Z,13.45
2023-05-19T22:26:11.281Z,13.40
2023-05-19T22:28:37.770Z,13.34
2023-05-19T22:31:04.417Z,13.32
2023-05-19T22:33:30.955Z,13.30
2023-05-19T22:35:57.523Z,13.30
2023-05-19T22:38:24.043Z,13.25
2023-05-19T22:40:50.925Z,13.21
2023-05-19T22:43:17.382Z,13.14
2023-05-19T22:45:43.993Z,13.13
2023-05-19T22:48:10.668Z,13.10
2023-05-19T22:50:37.193Z,13.06
2023-05-19T22:53:03.666Z,12.98
2023-05-19T22:55:30.149Z,12.96
2023-05-19T22:57:56.643Z,12.93
2023-05-19T23:00:23.228Z,12.88
2023-05-19T23:02:49.798Z,12.84
2023-05-19T23:05:16.326Z,12.81
2023-05-19T23:07:42.894Z,12.77
2023-05-19T23:10:09.657Z,12.70
2023-05-19T23:12:36.248Z,12.66
2023-05-19T23:15:03.508Z,12.56
2023-05-19T23:17:30.031Z,12.52
2023-05-19T23:19:56.613Z,12.45
2023-05-19T23:22:23.233Z,12.43
2023-05-19T23:24:49.708Z,12.38
2023-05-19T23:27:16.160Z,12.34
2023-05-19T23:29:42.651Z,12.31
2023-05-19T23:32:09.228Z,12.31
2023-05-19T23:34:35.862Z,12.30
2023-05-19T23:37:02.308Z,12.22
2023-05-19T23:39:28.795Z,12.22
2023-05-19T23:41:56.242Z,12.16
2023-05-19T23:44:22.787Z,12.11
2023-05-19T23:46:49.277Z,12.08
2023-05-19T23:49:15.945Z,12.08
2023-05-19T23:51:42.423Z,12.06
2023-05-19T23:54:08.954Z,12.04
2023-05-19T23:56:35.552Z,12.00
2023-05-19T23:59:02.224Z,11.98
